West Mansfield, Ohio
Current Conditions -  °F | °C
As of 1:10 AM on Thursday 23 Oct 2014 (Local Time) from KEDJ Reporting Station
Overcast Overcast  
Wind Chill: 41°   Ceiling: 2600
Heat Index: 41°   Visibility: 10mi
Dew Point: 41°   Wind: 3mph
Humidity: 100%   Direction: 320°NW
Pressure: 30.27"   Gusts: NA
Location:  40.4°N, 83.55°W
Report Text: KEDJ 230510Z AUTO 32003KT 10SM OVC026 05/05 A3027 RMK AO1
Loading
Personal Weather Stations






























Interactive Weather Map
Tropical Storm Tracking
New forecast layout! Learn more

10-Day Weather Forecast

Advertisements
Track Severe Weather on mobile